sensor_id;sensor_type;location;lat;lon;timestamp;pressure;altitude;pressure_sealevel;temperature;humidity
81274;BME280;70753;47.908;11.274;2023-06-19T00:00:09;94519.00;;;23.08;43.04
81274;BME280;70753;47.908;11.274;2023-06-19T00:02:35;94516.72;;;23.14;42.40
81274;BME280;70753;47.908;11.274;2023-06-19T00:05:00;94513.22;;;23.13;42.60
81274;BME280;70753;47.908;11.274;2023-06-19T00:07:27;94520.34;;;23.21;43.21
81274;BME280;70753;47.908;11.274;2023-06-19T00:09:52;94521.91;;;23.22;43.19
81274;BME280;70753;47.908;11.274;2023-06-19T00:12:19;94526.56;;;23.22;43.50
81274;BME280;70753;47.908;11.274;2023-06-19T00:14:45;94515.41;;;23.30;43.54
81274;BME280;70753;47.908;11.274;2023-06-19T00:17:10;94507.47;;;23.18;43.39
81274;BME280;70753;47.908;11.274;2023-06-19T00:19:35;94509.13;;;23.26;43.48
81274;BME280;70753;47.908;11.274;2023-06-19T00:22:01;94505.19;;;23.24;43.56
81274;BME280;70753;47.908;11.274;2023-06-19T00:24:26;94505.97;;;23.21;43.78
81274;BME280;70753;47.908;11.274;2023-06-19T00:26:52;94515.13;;;23.09;43.82
81274;BME280;70753;47.908;11.274;2023-06-19T00:29:18;94512.03;;;23.11;44.24
81274;BME280;70753;47.908;11.274;2023-06-19T00:31:44;94513.56;;;23.08;44.27
81274;BME280;70753;47.908;11.274;2023-06-19T00:34:09;94515.13;;;23.09;43.70
81274;BME280;70753;47.908;11.274;2023-06-19T00:36:34;94510.44;;;23.06;44.21
81274;BME280;70753;47.908;11.274;2023-06-19T00:39:00;94510.75;;;23.01;44.32
81274;BME280;70753;47.908;11.274;2023-06-19T00:41:26;94513.03;;;22.99;44.50
81274;BME280;70753;47.908;11.274;2023-06-19T00:43:52;94511.84;;;22.97;44.89
81274;BME280;70753;47.908;11.274;2023-06-19T00:46:19;94519.88;;;22.89;44.81
81274;BME280;70753;47.908;11.274;2023-06-19T00:48:44;94529.63;;;22.91;45.02
81274;BME280;70753;47.908;11.274;2023-06-19T00:51:10;94521.09;;;22.92;45.44
81274;BME280;70753;47.908;11.274;2023-06-19T00:53:35;94518.25;;;22.85;45.71
81274;BME280;70753;47.908;11.274;2023-06-19T00:56:03;94515.22;;;22.90;45.96
81274;BME280;70753;47.908;11.274;2023-06-19T00:58:29;94526.53;;;22.92;45.75
81274;BME280;70753;47.908;11.274;2023-06-19T01:00:54;94514.34;;;22.82;46.20
81274;BME280;70753;47.908;11.274;2023-06-19T01:03:21;94527.28;;;22.89;45.71
81274;BME280;70753;47.908;11.274;2023-06-19T01:05:47;94524.84;;;22.84;46.39
81274;BME280;70753;47.908;11.274;2023-06-19T01:08:19;94519.84;;;22.86;45.57
81274;BME280;70753;47.908;11.274;2023-06-19T01:10:51;94517.13;;;22.86;45.58
81274;BME280;70753;47.908;11.274;2023-06-19T01:13:21;94518.63;;;22.83;45.58
81274;BME280;70753;47.908;11.274;2023-06-19T01:15:47;94517.44;;;22.81;45.37
81274;BME280;70753;47.908;11.274;2023-06-19T01:18:13;94518.22;;;22.81;46.46
81274;BME280;70753;47.908;11.274;2023-06-19T01:20:41;94521.72;;;22.82;46.23
81274;BME280;70753;47.908;11.274;2023-06-19T01:23:09;94518.59;;;22.80;46.36
81274;BME280;70753;47.908;11.274;2023-06-19T01:25:34;94505.31;;;22.75;47.03
81274;BME280;70753;47.908;11.274;2023-06-19T01:28:00;94511.41;;;22.68;46.97
81274;BME280;70753;47.908;11.274;2023-06-19T01:30:26;94509.84;;;22.67;46.27
81274;BME280;70753;47.908;11.274;2023-06-19T01:32:56;94510.47;;;22.83;46.40
81274;BME280;70753;47.908;11.274;2023-06-19T01:35:27;94508.66;;;22.91;46.14
81274;BME280;70753;47.908;11.274;2023-06-19T01:37:53;94512.50;;;22.90;46.31
81274;BME280;70753;47.908;11.274;2023-06-19T01:40:20;94515.13;;;22.83;46.48
81274;BME280;70753;47.908;11.274;2023-06-19T01:42:46;94510.97;;;22.89;46.29
81274;BME280;70753;47.908;11.274;2023-06-19T01:45:12;94522.97;;;22.88;46.48
81274;BME280;70753;47.908;11.274;2023-06-19T01:47:38;94520.63;;;22.86;46.78
81274;BME280;70753;47.908;11.274;2023-06-19T01:50:04;94525.69;;;22.88;46.11
81274;BME280;70753;47.908;11.274;2023-06-19T01:52:30;94525.53;;;22.77;46.42
81274;BME280;70753;47.908;11.274;2023-06-19T01:54:55;94523.06;;;22.69;46.02
81274;BME280;70753;47.908;11.274;2023-06-19T01:57:22;94530.19;;;22.77;46.39
81274;BME280;70753;47.908;11.274;2023-06-19T01:59:47;94528.75;;;22.60;46.26
81274;BME280;70753;47.908;11.274;2023-06-19T02:02:13;94534.13;;;22.57;46.44
81274;BME280;70753;47.908;11.274;2023-06-19T02:04:38;94532.84;;;22.51;46.50
81274;BME280;70753;47.908;11.274;2023-06-19T02:07:04;94525.91;;;22.53;47.13
81274;BME280;70753;47.908;11.274;2023-06-19T02:09:29;94525.84;;;22.50;47.65
81274;BME280;70753;47.908;11.274;2023-06-19T02:11:54;94528.94;;;22.48;47.94
81274;BME280;70753;47.908;11.274;2023-06-19T02:14:21;94532.97;;;22.58;47.70
81274;BME280;70753;47.908;11.274;2023-06-19T02:16:47;94534.88;;;22.57;47.09
81274;BME280;70753;47.908;11.274;2023-06-19T02:19:12;94526.41;;;22.59;46.71
81274;BME280;70753;47.908;11.274;2023-06-19T02:21:38;94530.25;;;22.58;46.81
81274;BME280;70753;47.908;11.274;2023-06-19T02:24:04;94537.59;;;22.57;47.03
81274;BME280;70753;47.908;11.274;2023-06-19T02:26:29;94531.47;;;22.60;46.24
81274;BME280;70753;47.908;11.274;2023-06-19T02:28:55;94535.13;;;22.49;46.86
81274;BME280;70753;47.908;11.274;2023-06-19T02:31:22;94533.56;;;22.48;47.02
81274;BME280;70753;47.908;11.274;2023-06-19T02:33:47;94538.63;;;22.49;47.27
81274;BME280;70753;47.908;11.274;2023-06-19T02:36:13;94539.13;;;22.55;47.53
81274;BME280;70753;47.908;11.274;2023-06-19T02:38:38;94534.47;;;22.55;47.56
81274;BME280;70753;47.908;11.274;2023-06-19T02:41:04;94540.69;;;22.56;47.19
81274;BME280;70753;47.908;11.274;2023-06-19T02:43:29;94537.72;;;22.61;47.34
81274;BME280;70753;47.908;11.274;2023-06-19T02:45:55;94541.91;;;22.58;47.12
81274;BME280;70753;47.908;11.274;2023-06-19T02:48:22;94543.03;;;22.57;47.46
81274;BME280;70753;47.908;11.274;2023-06-19T02:50:47;94552.44;;;22.60;47.15
81274;BME280;70753;47.908;11.274;2023-06-19T02:53:12;94543.47;;;22.59;47.54
81274;BME280;70753;47.908;11.274;2023-06-19T02:55:38;94548.22;;;22.62;47.60
81274;BME280;70753;47.908;11.274;2023-06-19T02:58:04;94548.56;;;22.61;47.69
81274;BME280;70753;47.908;11.274;2023-06-19T03:00:29;94555.50;;;22.58;47.45
81274;BME280;70753;47.908;11.274;2023-06-19T03:02:54;94545.44;;;22.59;46.77
81274;BME280;70753;47.908;11.274;2023-06-19T03:05:22;94560.56;;;22.60;47.55
81274;BME280;70753;47.908;11.274;2023-06-19T03:07:48;94552.72;;;22.55;47.13
81274;BME280;70753;47.908;11.274;2023-06-19T03:10:13;94562.31;;;22.49;46.81
81274;BME280;70753;47.908;11.274;2023-06-19T03:12:38;94556.94;;;22.52;46.54
81274;BME280;70753;47.908;11.274;2023-06-19T03:15:05;94563.88;;;22.50;46.79
81274;BME280;70753;47.908;11.274;2023-06-19T03:17:30;94563.81;;;22.46;46.81
81274;BME280;70753;47.908;11.274;2023-06-19T03:19:56;94570.88;;;22.51;46.83
81274;BME280;70753;47.908;11.274;2023-06-19T03:22:22;94569.31;;;22.50;46.95
81274;BME280;70753;47.908;11.274;2023-06-19T03:24:48;94569.31;;;22.50;46.95
81274;BME280;70753;47.908;11.274;2023-06-19T03:27:13;94581.03;;;22.54;47.42
81274;BME280;70753;47.908;11.274;2023-06-19T03:29:39;94575.59;;;22.54;47.39
81274;BME280;70753;47.908;11.274;2023-06-19T03:32:05;94577.84;;;22.48;47.76
81274;BME280;70753;47.908;11.274;2023-06-19T03:34:30;94575.88;;;22.49;47.69
81274;BME280;70753;47.908;11.274;2023-06-19T03:36:56;94584.16;;;22.56;47.73
81274;BME280;70753;47.908;11.274;2023-06-19T03:39:24;94582.66;;;22.58;47.95
81274;BME280;70753;47.908;11.274;2023-06-19T03:41:49;94596.84;;;22.48;47.65
81274;BME280;70753;47.908;11.274;2023-06-19T03:44:15;94600.28;;;22.45;47.93
81274;BME280;70753;47.908;11.274;2023-06-19T03:46:40;94594.53;;;22.28;47.49
81274;BME280;70753;47.908;11.274;2023-06-19T03:49:06;94601.59;;;22.09;46.97
81274;BME280;70753;47.908;11.274;2023-06-19T03:51:32;94597.88;;;21.98;47.32
81274;BME280;70753;47.908;11.274;2023-06-19T03:53:58;94610.66;;;21.44;49.51
81274;BME280;70753;47.908;11.274;2023-06-19T03:56:24;94606.34;;;21.24;50.16
81274;BME280;70753;47.908;11.274;2023-06-19T03:58:50;94612.25;;;21.10;50.63
81274;BME280;70753;47.908;11.274;2023-06-19T04:01:15;94611.44;;;21.10;50.92
81274;BME280;70753;47.908;11.274;2023-06-19T04:03:41;94609.78;;;21.05;51.42
81274;BME280;70753;47.908;11.274;2023-06-19T04:06:06;94614.78;;;21.03;51.28
81274;BME280;70753;47.908;11.274;2023-06-19T04:08:33;94608.59;;;21.57;50.19
81274;BME280;70753;47.908;11.274;2023-06-19T04:10:58;94609.41;;;21.76;49.53
81274;BME280;70753;47.908;11.274;2023-06-19T04:13:25;94616.28;;;21.89;49.63
81274;BME280;70753;47.908;11.274;2023-06-19T04:15:50;94624.16;;;21.94;49.66
81274;BME280;70753;47.908;11.274;2023-06-19T04:18:15;94618.56;;;22.06;49.79
81274;BME280;70753;47.908;11.274;2023-06-19T04:20:41;94629.28;;;22.19;49.56
81274;BME280;70753;47.908;11.274;2023-06-19T04:23:06;94628.94;;;22.20;49.36
81274;BME280;70753;47.908;11.274;2023-06-19T04:25:32;94627.13;;;22.28;49.07
81274;BME280;70753;47.908;11.274;2023-06-19T04:27:57;94621.13;;;22.19;49.49
81274;BME280;70753;47.908;11.274;2023-06-19T04:30:25;94629.41;;;22.26;49.23
81274;BME280;70753;47.908;11.274;2023-06-19T04:32:50;94630.66;;;22.09;49.65
81274;BME280;70753;47.908;11.274;2023-06-19T04:35:19;94628.16;;;22.20;49.29
81274;BME280;70753;47.908;11.274;2023-06-19T04:37:45;94629.28;;;22.19;49.33
81274;BME280;70753;47.908;11.274;2023-06-19T04:40:11;94633.22;;;22.21;49.64
81274;BME280;70753;47.908;11.274;2023-06-19T04:42:36;94644.16;;;22.25;49.65
81274;BME280;70753;47.908;11.274;2023-06-19T04:45:01;94644.50;;;22.04;49.75
81274;BME280;70753;47.908;11.274;2023-06-19T04:47:28;94652.59;;;22.20;48.93
81274;BME280;70753;47.908;11.274;2023-06-19T04:49:54;94656.75;;;21.94;48.20
81274;BME280;70753;47.908;11.274;2023-06-19T04:52:19;94652.06;;;22.14;48.44
81274;BME280;70753;47.908;11.274;2023-06-19T04:54:45;94658.00;;;22.20;47.75
81274;BME280;70753;47.908;11.274;2023-06-19T04:57:10;94661.34;;;22.32;47.67
81274;BME280;70753;47.908;11.274;2023-06-19T04:59:35;94661.91;;;22.60;45.38
81274;BME280;70753;47.908;11.274;2023-06-19T05:02:01;94666.22;;;22.84;43.99
81274;BME280;70753;47.908;11.274;2023-06-19T05:04:29;94672.72;;;23.02;43.69
81274;BME280;70753;47.908;11.274;2023-06-19T05:06:54;94668.44;;;23.01;43.51
81274;BME280;70753;47.908;11.274;2023-06-19T05:09:19;94664.19;;;23.26;43.86
81274;BME280;70753;47.908;11.274;2023-06-19T05:11:45;94671.94;;;23.47;43.06
81274;BME280;70753;47.908;11.274;2023-06-19T05:14:10;94669.25;;;23.50;43.29
81274;BME280;70753;47.908;11.274;2023-06-19T05:16:36;94676.31;;;23.55;43.05
81274;BME280;70753;47.908;11.274;2023-06-19T05:19:01;94668.44;;;23.76;42.98
81274;BME280;70753;47.908;11.274;2023-06-19T05:21:28;94677.00;;;23.75;43.43
81274;BME280;70753;47.908;11.274;2023-06-19T05:23:53;94681.09;;;23.91;43.13
81274;BME280;70753;47.908;11.274;2023-06-19T05:26:19;94691.03;;;23.77;43.10
81274;BME280;70753;47.908;11.274;2023-06-19T05:28:45;94692.50;;;23.71;43.51
81274;BME280;70753;47.908;11.274;2023-06-19T05:31:12;94686.50;;;23.88;43.58
81274;BME280;70753;47.908;11.274;2023-06-19T05:33:37;94690.59;;;24.01;43.46
81274;BME280;70753;47.908;11.274;2023-06-19T05:36:03;94693.72;;;24.03;43.44
81274;BME280;70753;47.908;11.274;2023-06-19T05:38:30;94707.66;;;23.98;44.10
81274;BME280;70753;47.908;11.274;2023-06-19T05:40:55;94701.47;;;24.01;44.34
81274;BME280;70753;47.908;11.274;2023-06-19T05:43:21;94700.31;;;24.02;43.50
81274;BME280;70753;47.908;11.274;2023-06-19T05:45:46;94695.56;;;23.95;43.59
81274;BME280;70753;47.908;11.274;2023-06-19T05:48:11;94703.09;;;24.05;43.68
81274;BME280;70753;47.908;11.274;2023-06-19T05:50:37;94709.34;;;24.06;44.20
81274;BME280;70753;47.908;11.274;2023-06-19T05:53:02;94713.81;;;23.95;44.95
81274;BME280;70753;47.908;11.274;2023-06-19T05:55:29;94715.31;;;24.15;44.01
81274;BME280;70753;47.908;11.274;2023-06-19T05:57:55;94721.28;;;23.98;44.51
81274;BME280;70753;47.908;11.274;2023-06-19T06:00:21;94725.53;;;23.99;45.05
81274;BME280;70753;47.908;11.274;2023-06-19T06:02:46;94719.50;;;23.83;45.41
81274;BME280;70753;47.908;11.274;2023-06-19T06:05:12;94726.03;;;23.78;45.48
81274;BME280;70753;47.908;11.274;2023-06-19T06:07:37;94732.72;;;24.07;45.34
81274;BME280;70753;47.908;11.274;2023-06-19T06:10:03;94733.03;;;24.31;44.60
81274;BME280;70753;47.908;11.274;2023-06-19T06:12:30;94733.03;;;24.31;45.23
81274;BME280;70753;47.908;11.274;2023-06-19T06:14:58;94735.84;;;24.09;45.88
81274;BME280;70753;47.908;11.274;2023-06-19T06:17:23;94740.91;;;24.40;45.20
81274;BME280;70753;47.908;11.274;2023-06-19T06:19:49;94738.44;;;24.28;45.34
81274;BME280;70753;47.908;11.274;2023-06-19T06:22:14;94747.56;;;24.13;45.80
81274;BME280;70753;47.908;11.274;2023-06-19T06:24:40;94736.50;;;24.28;44.97
81274;BME280;70753;47.908;11.274;2023-06-19T06:27:06;94756.69;;;24.24;45.29
81274;BME280;70753;47.908;11.274;2023-06-19T06:29:34;94763.81;;;24.06;45.63
81274;BME280;70753;47.908;11.274;2023-06-19T06:32:03;94758.94;;;24.48;45.35
81274;BME280;70753;47.908;11.274;2023-06-19T06:34:30;94757.38;;;24.47;45.75
81274;BME280;70753;47.908;11.274;2023-06-19T06:36:56;94760.25;;;24.28;46.43
81274;BME280;70753;47.908;11.274;2023-06-19T06:39:21;94756.41;;;24.32;45.69
81274;BME280;70753;47.908;11.274;2023-06-19T06:41:46;94758.38;;;24.65;45.09
81274;BME280;70753;47.908;11.274;2023-06-19T06:44:12;94759.19;;;24.69;44.98
81274;BME280;70753;47.908;11.274;2023-06-19T06:46:38;94761.41;;;24.60;45.47
81274;BME280;70753;47.908;11.274;2023-06-19T06:49:04;94770.38;;;24.90;45.15
81274;BME280;70753;47.908;11.274;2023-06-19T06:51:29;94768.94;;;25.03;44.83
81274;BME280;70753;47.908;11.274;2023-06-19T06:53:55;94771.91;;;24.91;45.39
81274;BME280;70753;47.908;11.274;2023-06-19T06:56:20;94782.69;;;24.77;46.56
81274;BME280;70753;47.908;11.274;2023-06-19T06:58:46;94784.16;;;25.04;45.87
81274;BME280;70753;47.908;11.274;2023-06-19T07:01:12;94783.13;;;25.20;44.67
81274;BME280;70753;47.908;11.274;2023-06-19T07:03:39;94787.19;;;25.36;44.53
81274;BME280;70753;47.908;11.274;2023-06-19T07:06:04;94783.78;;;25.43;45.18
81274;BME280;70753;47.908;11.274;2023-06-19T07:08:30;94783.69;;;25.36;44.62
81274;BME280;70753;47.908;11.274;2023-06-19T07:10:55;94778.84;;;25.19;44.49
81274;BME280;70753;47.908;11.274;2023-06-19T07:13:21;94785.06;;;25.16;44.46
81274;BME280;70753;47.908;11.274;2023-06-19T07:15:46;94790.34;;;25.38;44.37
81274;BME280;70753;47.908;11.274;2023-06-19T07:18:12;94784.63;;;25.10;45.52
81274;BME280;70753;47.908;11.274;2023-06-19T07:20:39;94777.72;;;25.23;46.34
81274;BME280;70753;47.908;11.274;2023-06-19T07:23:04;94781.50;;;25.11;45.58
81274;BME280;70753;47.908;11.274;2023-06-19T07:25:30;94781.88;;;25.47;45.37
81274;BME280;70753;47.908;11.274;2023-06-19T07:27:56;94775.41;;;25.69;45.66
81274;BME280;70753;47.908;11.274;2023-06-19T07:30:22;94780.53;;;25.70;45.38
81274;BME280;70753;47.908;11.274;2023-06-19T07:32:47;94780.19;;;25.79;44.35
81274;BME280;70753;47.908;11.274;2023-06-19T07:35:13;94768.75;;;26.14;44.23
81274;BME280;70753;47.908;11.274;2023-06-19T07:37:39;94777.19;;;26.59;42.98
81274;BME280;70753;47.908;11.274;2023-06-19T07:40:05;94774.59;;;26.88;42.36
81274;BME280;70753;47.908;11.274;2023-06-19T07:42:31;94780.91;;;27.09;42.39
81274;BME280;70753;47.908;11.274;2023-06-19T07:44:58;94777.41;;;27.09;41.51
81274;BME280;70753;47.908;11.274;2023-06-19T07:47:23;94771.97;;;27.26;42.31
81274;BME280;70753;47.908;11.274;2023-06-19T07:49:48;94768.03;;;27.17;43.07
81274;BME280;70753;47.908;11.274;2023-06-19T07:52:14;94778.66;;;27.43;41.34
81274;BME280;70753;47.908;11.274;2023-06-19T07:54:50;94773.97;;;27.40;40.34
81274;BME280;70753;47.908;11.274;2023-06-19T07:57:16;94781.34;;;27.29;40.23
81274;BME280;70753;47.908;11.274;2023-06-19T07:59:42;94770.84;;;27.38;40.39
81274;BME280;70753;47.908;11.274;2023-06-19T08:02:07;94777.91;;;27.46;40.47
81274;BME280;70753;47.908;11.274;2023-06-19T08:04:32;94769.38;;;26.65;42.08
81274;BME280;70753;47.908;11.274;2023-06-19T08:06:58;94772.38;;;27.25;40.79
81274;BME280;70753;47.908;11.274;2023-06-19T08:09:24;94781.31;;;27.08;40.84
81274;BME280;70753;47.908;11.274;2023-06-19T08:11:51;94788.88;;;26.56;41.85
81274;BME280;70753;47.908;11.274;2023-06-19T08:14:16;94784.72;;;26.77;42.04
81274;BME280;70753;47.908;11.274;2023-06-19T08:16:42;94779.75;;;27.21;40.84
81274;BME280;70753;47.908;11.274;2023-06-19T08:19:07;94772.81;;;27.48;40.52
81274;BME280;70753;47.908;11.274;2023-06-19T08:21:33;94775.56;;;27.69;39.89
81274;BME280;70753;47.908;11.274;2023-06-19T08:23:58;94779.09;;;27.87;40.75
81274;BME280;70753;47.908;11.274;2023-06-19T08:26:24;94779.06;;;27.77;38.73
81274;BME280;70753;47.908;11.274;2023-06-19T08:28:51;94778.28;;;27.73;39.34
81274;BME280;70753;47.908;11.274;2023-06-19T08:31:16;94773.13;;;27.22;39.93
81274;BME280;70753;47.908;11.274;2023-06-19T08:33:41;94768.88;;;27.39;40.62
81274;BME280;70753;47.908;11.274;2023-06-19T08:36:07;94771.22;;;27.37;40.13
81274;BME280;70753;47.908;11.274;2023-06-19T08:38:32;94773.59;;;27.73;39.13
81274;BME280;70753;47.908;11.274;2023-06-19T08:40:58;94768.91;;;27.70;38.94
81274;BME280;70753;47.908;11.274;2023-06-19T08:43:23;94765.38;;;27.77;38.08
81274;BME280;70753;47.908;11.274;2023-06-19T08:45:58;94765.75;;;27.44;38.82
81274;BME280;70753;47.908;11.274;2023-06-19T08:48:27;94759.50;;;27.50;38.73
81274;BME280;70753;47.908;11.274;2023-06-19T08:50:52;94768.91;;;27.63;38.94
81274;BME280;70753;47.908;11.274;2023-06-19T08:53:18;94760.22;;;27.29;39.48
81274;BME280;70753;47.908;11.274;2023-06-19T08:55:43;94759.88;;;27.66;39.29
81274;BME280;70753;47.908;11.274;2023-06-19T08:58:09;94757.16;;;27.77;38.95
81274;BME280;70753;47.908;11.274;2023-06-19T09:00:35;94759.13;;;28.04;38.03
81274;BME280;70753;47.908;11.274;2023-06-19T09:03:03;94750.09;;;28.15;37.22
81274;BME280;70753;47.908;11.274;2023-06-19T09:05:29;94746.91;;;28.41;37.98
81274;BME280;70753;47.908;11.274;2023-06-19T09:07:56;94747.69;;;28.34;36.49
81274;BME280;70753;47.908;11.274;2023-06-19T09:10:22;94737.53;;;28.28;36.62
81274;BME280;70753;47.908;11.274;2023-06-19T09:12:58;94748.91;;;28.16;36.88
81274;BME280;70753;47.908;11.274;2023-06-19T09:15:27;94752.47;;;28.05;36.91
81274;BME280;70753;47.908;11.274;2023-06-19T09:18:00;94741.03;;;28.32;36.56
81274;BME280;70753;47.908;11.274;2023-06-19T09:20:27;94729.66;;;28.40;37.07
81274;BME280;70753;47.908;11.274;2023-06-19T09:22:54;94726.03;;;28.68;36.11
81274;BME280;70753;47.908;11.274;2023-06-19T09:25:22;94717.88;;;28.57;36.57
81274;BME280;70753;47.908;11.274;2023-06-19T09:27:47;94726.44;;;28.70;35.78
81274;BME280;70753;47.908;11.274;2023-06-19T09:30:15;94738.88;;;28.92;35.23
81274;BME280;70753;47.908;11.274;2023-06-19T09:32:43;94726.44;;;28.70;36.48
81274;BME280;70753;47.908;11.274;2023-06-19T09:35:08;94724.97;;;28.34;37.03
81274;BME280;70753;47.908;11.274;2023-06-19T09:37:39;94718.16;;;28.73;36.56
81274;BME280;70753;47.908;11.274;2023-06-19T09:40:05;94716.03;;;29.09;35.96
81274;BME280;70753;47.908;11.274;2023-06-19T09:42:32;94719.94;;;29.08;36.12
81274;BME280;70753;47.908;11.274;2023-06-19T09:45:02;94725.28;;;29.36;35.47
81274;BME280;70753;47.908;11.274;2023-06-19T09:47:31;94722.00;;;29.55;35.41
81274;BME280;70753;47.908;11.274;2023-06-19T09:49:57;94712.44;;;29.71;35.11
81274;BME280;70753;47.908;11.274;2023-06-19T09:52:24;94719.78;;;29.88;33.83
81274;BME280;70753;47.908;11.274;2023-06-19T09:54:51;94713.06;;;29.96;34.37
81274;BME280;70753;47.908;11.274;2023-06-19T09:57:17;94711.53;;;29.88;34.76
81274;BME280;70753;47.908;11.274;2023-06-19T09:59:46;94704.72;;;30.03;34.83
81274;BME280;70753;47.908;11.274;2023-06-19T10:02:14;94705.81;;;30.12;34.16
81274;BME280;70753;47.908;11.274;2023-06-19T10:04:45;94703.66;;;30.27;34.22
81274;BME280;70753;47.908;11.274;2023-06-19T10:07:18;94695.41;;;30.30;34.20
81274;BME280;70753;47.908;11.274;2023-06-19T10:10:00;94704.50;;;29.87;34.28
81274;BME280;70753;47.908;11.274;2023-06-19T10:12:36;94698.34;;;29.69;36.12
81274;BME280;70753;47.908;11.274;2023-06-19T10:15:13;94698.91;;;29.94;35.63
81274;BME280;70753;47.908;11.274;2023-06-19T10:17:45;94707.75;;;30.12;34.40
81274;BME280;70753;47.908;11.274;2023-06-19T10:20:22;94707.47;;;30.03;34.95
81274;BME280;70753;47.908;11.274;2023-06-19T10:22:52;94700.88;;;29.93;34.95
81274;BME280;70753;47.908;11.274;2023-06-19T10:25:21;94707.00;;;29.67;35.02
81274;BME280;70753;47.908;11.274;2023-06-19T10:27:47;94705.50;;;29.55;34.10
81274;BME280;70753;47.908;11.274;2023-06-19T10:30:16;94698.00;;;29.59;34.60
81274;BME280;70753;47.908;11.274;2023-06-19T10:32:42;94702.16;;;29.82;34.33
81274;BME280;70753;47.908;11.274;2023-06-19T10:35:10;94696.94;;;29.98;33.40
81274;BME280;70753;47.908;11.274;2023-06-19T10:37:37;94695.38;;;30.34;32.89
81274;BME280;70753;47.908;11.274;2023-06-19T10:40:02;94698.69;;;30.52;32.86
81274;BME280;70753;47.908;11.274;2023-06-19T10:42:29;94687.78;;;30.75;32.48
81274;BME280;70753;47.908;11.274;2023-06-19T10:44:59;94693.25;;;31.09;32.17
81274;BME280;70753;47.908;11.274;2023-06-19T10:47:25;94694.59;;;31.51;31.31
81274;BME280;70753;47.908;11.274;2023-06-19T10:49:52;94692.13;;;32.45;30.41
81274;BME280;70753;47.908;11.274;2023-06-19T10:52:18;94688.78;;;33.29;29.10
81274;BME280;70753;47.908;11.274;2023-06-19T10:54:44;94684.38;;;33.67;28.37
81274;BME280;70753;47.908;11.274;2023-06-19T10:57:09;94680.66;;;34.63;28.11
81274;BME280;70753;47.908;11.274;2023-06-19T10:59:37;94675.41;;;34.53;27.06
81274;BME280;70753;47.908;11.274;2023-06-19T11:02:03;94667.34;;;35.00;27.40
81274;BME280;70753;47.908;11.274;2023-06-19T11:04:29;94667.97;;;34.91;27.39
81274;BME280;70753;47.908;11.274;2023-06-19T11:06:55;94663.03;;;35.62;24.84
81274;BME280;70753;47.908;11.274;2023-06-19T11:09:20;94656.50;;;36.02;24.62
81274;BME280;70753;47.908;11.274;2023-06-19T11:11:47;94661.44;;;36.20;24.75
81274;BME280;70753;47.908;11.274;2023-06-19T11:14:15;94657.00;;;37.89;23.45
81274;BME280;70753;47.908;11.274;2023-06-19T11:16:44;94654.31;;;37.76;22.91
81274;BME280;70753;47.908;11.274;2023-06-19T11:19:15;94656.59;;;38.63;21.71
81274;BME280;70753;47.908;11.274;2023-06-19T11:21:45;94645.34;;;39.50;21.79
81274;BME280;70753;47.908;11.274;2023-06-19T11:24:12;94650.88;;;40.01;20.78
81274;BME280;70753;47.908;11.274;2023-06-19T11:26:37;94644.72;;;39.64;21.37
81274;BME280;70753;47.908;11.274;2023-06-19T11:29:13;94642.72;;;39.14;21.53
81274;BME280;70753;47.908;11.274;2023-06-19T11:31:39;94638.16;;;38.11;22.07
81274;BME280;70753;47.908;11.274;2023-06-19T11:34:07;94644.81;;;37.46;23.68
81274;BME280;70753;47.908;11.274;2023-06-19T11:36:36;94638.47;;;37.46;23.51
81274;BME280;70753;47.908;11.274;2023-06-19T11:39:02;94638.88;;;36.96;22.98
81274;BME280;70753;47.908;11.274;2023-06-19T11:41:28;94643.91;;;38.25;21.09
81274;BME280;70753;47.908;11.274;2023-06-19T11:44:00;94638.03;;;39.61;20.49
81274;BME280;70753;47.908;11.274;2023-06-19T11:46:29;94635.66;;;39.36;20.62
81274;BME280;70753;47.908;11.274;2023-06-19T11:48:55;94629.47;;;38.81;20.87
81274;BME280;70753;47.908;11.274;2023-06-19T11:51:22;94635.03;;;38.81;21.27
81274;BME280;70753;47.908;11.274;2023-06-19T11:53:48;94639.91;;;38.26;21.83
81274;BME280;70753;47.908;11.274;2023-06-19T11:56:13;94629.88;;;37.62;22.01
81274;BME280;70753;47.908;11.274;2023-06-19T11:58:39;94628.66;;;36.92;23.07
81274;BME280;70753;47.908;11.274;2023-06-19T12:01:04;94637.56;;;36.23;24.10
81274;BME280;70753;47.908;11.274;2023-06-19T12:03:33;94636.78;;;36.22;23.69
81274;BME280;70753;47.908;11.274;2023-06-19T12:05:58;94639.00;;;35.80;24.23
81274;BME280;70753;47.908;11.274;2023-06-19T12:08:25;94633.53;;;36.02;24.21
81274;BME280;70753;47.908;11.274;2023-06-19T12:10:51;94619.91;;;35.82;24.27
81274;BME280;70753;47.908;11.274;2023-06-19T12:13:16;94623.75;;;35.51;25.29
81274;BME280;70753;47.908;11.274;2023-06-19T12:15:44;94619.31;;;35.28;25.16
81274;BME280;70753;47.908;11.274;2023-06-19T12:18:10;94617.00;;;35.14;25.50
81274;BME280;70753;47.908;11.274;2023-06-19T12:20:36;94616.56;;;35.15;24.80
81274;BME280;70753;47.908;11.274;2023-06-19T12:23:02;94610.31;;;34.99;24.79
81274;BME280;70753;47.908;11.274;2023-06-19T12:25:29;94609.09;;;34.87;25.27
81274;BME280;70753;47.908;11.274;2023-06-19T12:27:55;94605.03;;;35.04;25.21
81274;BME280;70753;47.908;11.274;2023-06-19T12:30:21;94603.22;;;34.85;25.05
81274;BME280;70753;47.908;11.274;2023-06-19T12:32:46;94595.22;;;34.62;25.68
81274;BME280;70753;47.908;11.274;2023-06-19T12:35:12;94596.44;;;34.73;26.24
81274;BME280;70753;47.908;11.274;2023-06-19T12:37:38;94607.44;;;35.27;25.40
81274;BME280;70753;47.908;11.274;2023-06-19T12:40:05;94612.56;;;35.88;23.97
81274;BME280;70753;47.908;11.274;2023-06-19T12:42:32;94610.81;;;36.16;23.80
81274;BME280;70753;47.908;11.274;2023-06-19T12:44:59;94612.03;;;35.81;23.77